createdAt,value
2023-03-19T00:00:31.699Z,6.34
2023-03-19T00:02:58.813Z,6.63
2023-03-19T00:05:30.373Z,6.27
2023-03-19T00:07:57.565Z,6.64
2023-03-19T00:10:30.220Z,6.98
2023-03-19T00:12:57.464Z,6.94
2023-03-19T00:15:24.679Z,7.08
2023-03-19T00:18:00.816Z,7.35
2023-03-19T00:20:28.155Z,7.28
2023-03-19T00:22:56.303Z,6.76
2023-03-19T00:25:23.905Z,6.65
2023-03-19T00:28:11.115Z,6.85
2023-03-19T00:31:31.616Z,6.62
2023-03-19T00:33:36.341Z,7.09
2023-03-19T00:36:04.079Z,7.12
2023-03-19T00:38:31.052Z,7.18
2023-03-19T00:40:58.065Z,6.82
2023-03-19T00:43:25.586Z,7.04
2023-03-19T00:45:52.854Z,7.21
2023-03-19T00:48:23.507Z,6.79
2023-03-19T00:50:51.053Z,6.46
2023-03-19T00:53:18.615Z,6.67
2023-03-19T00:55:46.525Z,6.78
2023-03-19T00:58:13.603Z,6.57
2023-03-19T01:00:40.586Z,6.36
2023-03-19T01:03:07.685Z,6.69
2023-03-19T01:08:03.938Z,6.68
2023-03-19T01:10:33.695Z,6.58
2023-03-19T01:13:00.631Z,6.29
2023-03-19T01:15:27.777Z,6.25
2023-03-19T01:17:54.839Z,6.89
2023-03-19T01:20:24.307Z,7.05
2023-03-19T01:22:51.358Z,7.16
2023-03-19T01:25:18.551Z,6.88
2023-03-19T01:27:46.716Z,6.77
2023-03-19T01:30:14.616Z,6.39
2023-03-19T01:32:41.637Z,6.41
2023-03-19T01:35:09.978Z,6.35
2023-03-19T01:37:37.741Z,6.64
2023-03-19T01:40:06.191Z,6.78
2023-03-19T01:42:34.017Z,6.86
2023-03-19T01:45:03.908Z,6.68
2023-03-19T01:47:32.980Z,6.40
2023-03-19T01:50:00.237Z,7.02
2023-03-19T01:52:32.320Z,6.88
2023-03-19T01:55:02.422Z,6.97
2023-03-19T01:57:31.479Z,6.86
2023-03-19T02:00:02.385Z,6.84
2023-03-19T02:02:32.016Z,6.33
2023-03-19T02:05:05.017Z,6.45
2023-03-19T02:07:34.475Z,6.13
2023-03-19T02:10:03.793Z,6.28
2023-03-19T02:12:30.712Z,6.82
2023-03-19T02:14:57.670Z,6.43
2023-03-19T02:17:24.658Z,6.00
2023-03-19T02:20:05.519Z,5.79
2023-03-19T02:22:33.234Z,5.56
2023-03-19T02:25:06.950Z,5.83
2023-03-19T02:27:34.641Z,6.06
2023-03-19T02:30:07.954Z,5.94
2023-03-19T02:32:34.968Z,6.03
2023-03-19T02:35:02.035Z,5.70
2023-03-19T02:37:33.493Z,5.85
2023-03-19T02:40:10.625Z,5.90
2023-03-19T02:42:37.974Z,5.82
2023-03-19T02:45:05.550Z,5.98
2023-03-19T02:47:32.453Z,6.01
2023-03-19T02:49:59.395Z,5.97
2023-03-19T02:52:26.410Z,6.22
2023-03-19T02:54:53.550Z,6.25
2023-03-19T02:57:21.371Z,6.03
2023-03-19T02:59:48.313Z,5.99
2023-03-19T03:02:15.718Z,5.97
2023-03-19T03:04:42.988Z,6.27
2023-03-19T03:07:09.928Z,6.17
2023-03-19T03:09:36.959Z,5.86
2023-03-19T03:12:04.745Z,5.98
2023-03-19T03:14:32.058Z,5.43
2023-03-19T03:16:59.077Z,5.30
2023-03-19T03:19:26.119Z,5.36
2023-03-19T03:21:53.141Z,5.96
2023-03-19T03:24:20.114Z,5.77
2023-03-19T03:26:47.061Z,5.11
2023-03-19T03:29:14.184Z,5.37
2023-03-19T03:31:41.576Z,5.74
2023-03-19T03:34:08.609Z,5.67
2023-03-19T03:36:35.745Z,5.47
2023-03-19T03:39:02.841Z,5.56
2023-03-19T03:41:29.961Z,5.59
2023-03-19T03:43:57.881Z,5.14
2023-03-19T03:46:25.178Z,5.75
2023-03-19T03:48:52.174Z,5.60
2023-03-19T03:51:19.867Z,5.06
2023-03-19T03:53:46.816Z,5.32
2023-03-19T03:56:14.263Z,4.94
2023-03-19T03:58:41.922Z,4.97
2023-03-19T04:01:14.604Z,5.31
2023-03-19T04:03:41.822Z,5.03
2023-03-19T04:06:13.802Z,5.23
2023-03-19T04:08:40.782Z,5.12
2023-03-19T04:11:08.403Z,4.87
2023-03-19T04:13:37.330Z,4.84
2023-03-19T04:16:06.786Z,4.68
2023-03-19T04:18:34.485Z,5.06
2023-03-19T04:21:01.669Z,4.78
2023-03-19T04:23:28.682Z,4.83
2023-03-19T04:26:03.086Z,4.86
2023-03-19T04:28:30.886Z,5.03
2023-03-19T04:31:06.898Z,5.15
2023-03-19T04:33:34.625Z,4.64
2023-03-19T04:36:02.210Z,4.58
2023-03-19T04:38:29.673Z,4.92
2023-03-19T04:40:57.312Z,4.66
2023-03-19T04:43:25.082Z,4.62
2023-03-19T04:45:52.344Z,4.99
2023-03-19T04:48:19.320Z,4.39
2023-03-19T04:50:47.546Z,4.63
2023-03-19T04:53:14.667Z,4.56
2023-03-19T04:55:41.981Z,4.68
2023-03-19T04:58:11.593Z,4.76
2023-03-19T05:00:38.608Z,5.03
2023-03-19T05:03:05.618Z,4.71
2023-03-19T05:05:32.596Z,4.69
2023-03-19T05:07:59.538Z,4.75
2023-03-19T05:10:26.473Z,4.53
2023-03-19T05:12:53.458Z,3.94
2023-03-19T05:15:20.450Z,4.45
2023-03-19T05:17:47.406Z,4.63
2023-03-19T05:20:14.601Z,4.75
2023-03-19T05:22:41.940Z,4.73
2023-03-19T05:25:09.094Z,4.97
2023-03-19T05:27:36.763Z,5.35
2023-03-19T05:30:05.741Z,5.62
2023-03-19T05:32:33.104Z,6.24
2023-03-19T05:35:00.133Z,6.32
2023-03-19T05:37:27.204Z,5.74
2023-03-19T05:39:54.131Z,5.64
2023-03-19T05:42:21.369Z,6.02
2023-03-19T05:44:49.224Z,6.01
2023-03-19T05:47:16.590Z,6.09
2023-03-19T05:49:43.505Z,7.07
2023-03-19T05:52:11.427Z,6.41
2023-03-19T05:54:38.598Z,6.76
2023-03-19T05:57:05.578Z,7.05
2023-03-19T05:59:32.661Z,6.74
2023-03-19T06:02:00.103Z,7.03
2023-03-19T06:04:27.555Z,7.10
2023-03-19T06:06:54.520Z,7.78
2023-03-19T06:09:21.496Z,7.90
2023-03-19T06:11:48.436Z,8.17
2023-03-19T06:14:15.976Z,7.51
2023-03-19T06:16:42.983Z,7.41
2023-03-19T06:19:10.597Z,7.60
2023-03-19T06:21:37.515Z,7.61
2023-03-19T06:24:04.558Z,7.68
2023-03-19T06:26:31.619Z,7.17
2023-03-19T06:28:58.676Z,7.59
2023-03-19T06:31:26.059Z,7.49
2023-03-19T06:33:54.173Z,7.42
2023-03-19T06:36:21.179Z,7.25
2023-03-19T06:38:48.178Z,7.31
2023-03-19T06:41:15.089Z,7.33
2023-03-19T06:43:42.561Z,7.81
2023-03-19T06:46:11.677Z,8.23
2023-03-19T06:48:38.900Z,7.42
2023-03-19T06:51:08.427Z,7.77
2023-03-19T06:53:35.305Z,7.40
2023-03-19T06:56:02.245Z,7.37
2023-03-19T06:58:29.253Z,7.65
2023-03-19T07:00:57.126Z,7.71
2023-03-19T07:03:24.207Z,8.00
2023-03-19T07:05:52.019Z,8.24
2023-03-19T07:08:20.367Z,8.20
2023-03-19T07:10:47.375Z,8.37
2023-03-19T07:13:14.708Z,8.21
2023-03-19T07:15:41.684Z,8.49
2023-03-19T07:18:08.624Z,8.48
2023-03-19T07:20:35.866Z,8.54
2023-03-19T07:23:03.608Z,8.70
2023-03-19T07:25:30.962Z,8.40
2023-03-19T07:27:58.113Z,8.29
2023-03-19T07:30:25.235Z,8.65
2023-03-19T07:32:52.210Z,8.77
2023-03-19T07:35:19.237Z,9.16
2023-03-19T07:37:46.138Z,9.53
2023-03-19T07:40:13.256Z,9.80
2023-03-19T07:42:40.411Z,9.84
2023-03-19T07:45:07.977Z,9.74
2023-03-19T07:47:34.901Z,9.10
2023-03-19T07:50:01.897Z,9.44
2023-03-19T07:52:28.853Z,9.60
2023-03-19T07:54:55.950Z,9.49
2023-03-19T07:57:23.058Z,9.35
2023-03-19T07:59:50.038Z,9.46
2023-03-19T08:02:17.369Z,9.71
2023-03-19T08:04:44.523Z,9.87
2023-03-19T08:07:13.055Z,10.28
2023-03-19T08:09:40.892Z,10.24
2023-03-19T08:12:08.592Z,9.98
2023-03-19T08:14:35.886Z,10.24
2023-03-19T08:17:02.864Z,10.31
2023-03-19T08:19:29.937Z,9.98
2023-03-19T08:21:56.876Z,10.11
2023-03-19T08:24:23.996Z,9.83
2023-03-19T08:26:51.009Z,10.52
2023-03-19T08:29:19.099Z,10.29
2023-03-19T08:31:46.545Z,10.38
2023-03-19T08:34:13.823Z,10.34
2023-03-19T08:36:41.023Z,10.58
2023-03-19T08:39:08.101Z,10.54
2023-03-19T08:41:35.096Z,11.03
2023-03-19T08:44:02.278Z,11.24
2023-03-19T08:46:29.900Z,11.29
2023-03-19T08:48:57.108Z,11.19
2023-03-19T08:51:26.297Z,11.08
2023-03-19T08:53:53.617Z,10.96
2023-03-19T08:56:20.695Z,11.59
2023-03-19T08:58:47.685Z,11.43
2023-03-19T09:01:15.620Z,11.60
2023-03-19T09:03:45.595Z,11.73
2023-03-19T09:06:14.792Z,11.55
2023-03-19T09:08:42.460Z,12.08
2023-03-19T09:11:11.187Z,12.20
2023-03-19T09:13:38.422Z,12.00
2023-03-19T09:16:06.035Z,12.26
2023-03-19T09:18:34.493Z,12.89
2023-03-19T09:21:03.018Z,13.30
2023-03-19T09:23:29.939Z,12.72
2023-03-19T09:25:56.965Z,12.94
2023-03-19T09:28:23.938Z,13.12
2023-03-19T09:30:51.971Z,13.45
2023-03-19T09:33:20.710Z,13.32
2023-03-19T09:35:55.810Z,12.91
2023-03-19T09:38:23.002Z,12.86
2023-03-19T09:41:05.212Z,13.13
2023-03-19T09:43:52.396Z,13.03
2023-03-19T09:46:24.925Z,13.29
2023-03-19T09:49:17.656Z,13.44
2023-03-19T09:51:54.042Z,13.67
2023-03-19T09:54:56.921Z,13.60
2023-03-19T09:57:24.145Z,13.95
2023-03-19T09:59:52.560Z,14.69
2023-03-19T10:02:22.237Z,14.59
2023-03-19T10:04:59.362Z,14.36
2023-03-19T10:07:32.858Z,13.55
2023-03-19T10:10:22.208Z,14.60
2023-03-19T10:13:23.163Z,14.30
2023-03-19T10:15:53.086Z,15.34
2023-03-19T10:18:25.139Z,15.51
2023-03-19T10:21:00.983Z,15.29
2023-03-19T10:23:51.858Z,15.48
2023-03-19T10:26:23.942Z,14.46
2023-03-19T10:29:10.383Z,13.99
2023-03-19T10:31:40.030Z,14.66
2023-03-19T10:34:29.099Z,14.22
2023-03-19T10:37:19.965Z,13.81
2023-03-19T10:39:49.190Z,14.21
2023-03-19T10:42:44.009Z,14.03
2023-03-19T10:45:31.986Z,14.75
2023-03-19T10:48:01.841Z,14.57
2023-03-19T10:50:38.985Z,14.65
2023-03-19T10:53:15.080Z,15.75
2023-03-19T10:56:18.005Z,15.39
2023-03-19T10:58:57.482Z,15.76
2023-03-19T11:01:28.726Z,16.06
2023-03-19T11:03:58.443Z,15.39
2023-03-19T11:06:34.203Z,16.31
2023-03-19T11:09:22.659Z,15.80
2023-03-19T11:12:07.217Z,15.25
2023-03-19T11:14:38.517Z,15.49
2023-03-19T11:17:16.583Z,15.25
2023-03-19T11:19:52.417Z,16.17
2023-03-19T11:22:25.924Z,16.78
2023-03-19T11:25:01.182Z,17.33
2023-03-19T11:27:29.988Z,17.70
2023-03-19T11:29:57.199Z,16.78
2023-03-19T11:32:39.568Z,16.76
2023-03-19T11:35:18.025Z,16.25
2023-03-19T11:37:53.997Z,17.05
2023-03-19T11:40:27.877Z,18.02
2023-03-19T11:43:21.520Z,17.89
2023-03-19T11:45:54.500Z,17.82
2023-03-19T11:48:39.816Z,17.58
2023-03-19T11:51:23.166Z,17.78
2023-03-19T11:54:17.722Z,18.32
2023-03-19T11:56:58.661Z,18.72
2023-03-19T12:00:00.424Z,18.56
2023-03-19T12:02:54.240Z,18.86
2023-03-19T12:05:44.132Z,18.45
2023-03-19T12:08:36.522Z,18.84
2023-03-19T12:11:22.308Z,19.00
2023-03-19T12:13:52.435Z,19.48
2023-03-19T12:16:46.492Z,19.12
2023-03-19T12:19:52.102Z,18.50
2023-03-19T12:22:39.247Z,19.94
2023-03-19T12:25:43.767Z,19.72
2023-03-19T12:28:36.583Z,19.71
2023-03-19T12:31:16.893Z,19.27
2023-03-19T12:34:06.146Z,18.72
2023-03-19T12:36:39.966Z,18.24
2023-03-19T12:39:15.474Z,19.36
2023-03-19T12:41:46.467Z,19.46
2023-03-19T12:44:29.210Z,19.41
2023-03-19T12:47:02.903Z,19.03
2023-03-19T12:49:33.005Z,19.62
2023-03-19T12:52:04.240Z,20.11
2023-03-19T12:54:40.000Z,19.77
2023-03-19T12:57:14.576Z,20.18
2023-03-19T13:00:00.156Z,20.15
2023-03-19T13:02:42.376Z,19.33
2023-03-19T13:05:15.069Z,19.87
2023-03-19T13:08:20.908Z,19.42
2023-03-19T13:10:47.924Z,19.94
2023-03-19T13:13:23.757Z,20.20
2023-03-19T13:15:55.990Z,20.88
2023-03-19T13:18:41.187Z,21.72
2023-03-19T13:21:28.478Z,22.10
2023-03-19T13:24:26.526Z,22.06
2023-03-19T13:26:55.715Z,19.95
2023-03-19T13:29:25.887Z,20.03
2023-03-19T13:31:53.978Z,20.67
2023-03-19T13:34:27.219Z,20.66
2023-03-19T13:37:17.182Z,20.99
2023-03-19T13:39:46.759Z,20.31
2023-03-19T13:42:42.389Z,20.26
2023-03-19T13:45:37.693Z,19.73
2023-03-19T13:48:35.887Z,19.24
2023-03-19T13:51:06.565Z,19.74
2023-03-19T13:53:39.509Z,19.84
2023-03-19T13:56:29.213Z,19.42
2023-03-19T13:59:17.521Z,19.06
2023-03-19T14:01:45.171Z,19.33
2023-03-19T14:04:20.149Z,19.72
2023-03-19T14:06:52.218Z,19.97
2023-03-19T14:09:36.295Z,20.08
2023-03-19T14:12:37.635Z,20.30
2023-03-19T14:15:10.867Z,20.38
2023-03-19T14:17:52.159Z,20.39
2023-03-19T14:20:24.110Z,20.07
2023-03-19T14:23:08.941Z,19.51
2023-03-19T14:25:58.283Z,19.52
2023-03-19T14:28:40.419Z,19.17
2023-03-19T14:31:21.998Z,19.42
2023-03-19T14:34:07.851Z,19.44
2023-03-19T14:36:38.705Z,19.43
2023-03-19T14:39:27.765Z,19.35
2023-03-19T14:42:44.780Z,19.97
2023-03-19T14:45:43.588Z,20.35
2023-03-19T14:48:15.524Z,19.59
2023-03-19T14:51:24.881Z,20.00
2023-03-19T14:54:02.522Z,19.84
2023-03-19T14:56:35.178Z,19.71
2023-03-19T14:59:06.224Z,19.01
2023-03-19T15:01:40.522Z,19.33
2023-03-19T15:04:13.298Z,19.06
2023-03-19T15:06:42.460Z,19.18
2023-03-19T15:09:27.305Z,19.20
2023-03-19T15:12:31.585Z,19.19
2023-03-19T15:15:22.581Z,19.38
2023-03-19T15:18:03.752Z,19.52
2023-03-19T15:20:40.584Z,19.95
2023-03-19T15:23:25.743Z,20.28
2023-03-19T15:25:58.138Z,20.24
2023-03-19T15:28:28.178Z,20.19
2023-03-19T15:31:22.194Z,19.76
2023-03-19T15:33:51.667Z,19.35
2023-03-19T15:36:24.928Z,19.16
2023-03-19T15:39:02.892Z,19.41
2023-03-19T15:41:32.973Z,19.02
2023-03-19T15:44:01.815Z,18.90
2023-03-19T15:46:37.023Z,18.94
2023-03-19T15:49:29.421Z,19.14
2023-03-19T15:52:02.611Z,18.69
2023-03-19T15:54:29.793Z,18.45
2023-03-19T15:56:57.582Z,18.63
2023-03-19T15:59:30.221Z,18.64
2023-03-19T16:02:00.207Z,18.82
2023-03-19T16:04:30.041Z,17.83
2023-03-19T16:06:58.774Z,18.21
2023-03-19T16:09:27.605Z,17.48
2023-03-19T16:11:56.099Z,17.35
2023-03-19T16:14:28.281Z,17.49
2023-03-19T16:17:06.110Z,16.94
2023-03-19T16:19:51.001Z,17.00
2023-03-19T16:22:25.104Z,17.36
2023-03-19T16:24:52.913Z,17.33
2023-03-19T16:27:40.165Z,17.81
2023-03-19T16:30:24.041Z,17.33
2023-03-19T16:33:02.512Z,18.00
2023-03-19T16:35:32.108Z,17.34
2023-03-19T16:38:22.522Z,17.84
2023-03-19T16:41:10.401Z,17.46
2023-03-19T16:43:37.698Z,17.31
2023-03-19T16:46:08.647Z,16.89
2023-03-19T16:48:35.621Z,17.42
2023-03-19T16:51:02.814Z,17.21
2023-03-19T16:53:31.992Z,17.52
2023-03-19T16:55:59.755Z,17.17
2023-03-19T16:58:32.012Z,17.38
2023-03-19T17:01:01.410Z,17.15
2023-03-19T17:03:30.401Z,17.39
2023-03-19T17:05:57.498Z,16.99
2023-03-19T17:08:26.432Z,16.91
2023-03-19T17:10:54.635Z,17.12
2023-03-19T17:13:28.714Z,16.72
2023-03-19T17:16:05.941Z,16.54
2023-03-19T17:18:36.753Z,16.99
2023-03-19T17:21:14.533Z,17.18
2023-03-19T17:23:41.595Z,16.75
2023-03-19T17:26:29.347Z,16.70
2023-03-19T17:28:57.204Z,16.09
2023-03-19T17:31:27.418Z,16.18
2023-03-19T17:34:06.222Z,16.46
2023-03-19T17:36:33.995Z,16.12
2023-03-19T17:39:00.977Z,15.55
2023-03-19T17:41:30.568Z,15.77
2023-03-19T17:43:57.518Z,15.62
2023-03-19T17:46:29.584Z,15.54
2023-03-19T17:48:56.584Z,15.86
2023-03-19T17:51:26.388Z,15.88
2023-03-19T17:53:55.694Z,16.43
2023-03-19T17:56:25.647Z,16.35
2023-03-19T17:58:53.303Z,16.28
2023-03-19T18:01:27.578Z,16.06
2023-03-19T18:03:56.497Z,16.21
2023-03-19T18:06:25.894Z,15.99
2023-03-19T18:08:53.250Z,16.07
2023-03-19T18:11:20.403Z,15.76
2023-03-19T18:13:47.404Z,16.19
2023-03-19T18:16:17.110Z,16.33
2023-03-19T18:18:43.951Z,15.41
2023-03-19T18:21:16.066Z,15.32
2023-03-19T18:23:44.182Z,15.06
2023-03-19T18:26:17.239Z,14.94
2023-03-19T18:28:44.916Z,15.12
2023-03-19T18:31:19.204Z,14.90
2023-03-19T18:33:51.929Z,14.75
2023-03-19T18:36:25.962Z,15.28
2023-03-19T18:38:55.367Z,15.05
2023-03-19T18:41:24.226Z,15.14
2023-03-19T18:43:51.251Z,15.11
2023-03-19T18:46:29.769Z,15.64
2023-03-19T18:49:17.226Z,15.87
2023-03-19T18:52:00.702Z,15.99
2023-03-19T18:54:28.417Z,16.02
2023-03-19T18:56:56.540Z,16.05
2023-03-19T18:59:33.215Z,15.67
2023-03-19T19:02:22.129Z,15.59
2023-03-19T19:04:49.195Z,15.61
2023-03-19T19:07:16.980Z,15.99
2023-03-19T19:09:44.089Z,16.03
2023-03-19T19:12:15.153Z,16.02
2023-03-19T19:14:44.341Z,16.11
2023-03-19T19:17:20.170Z,16.04
2023-03-19T19:19:47.256Z,16.23
2023-03-19T19:22:16.680Z,15.70
2023-03-19T19:24:44.304Z,16.00
2023-03-19T19:27:37.375Z,15.84
2023-03-19T19:30:05.069Z,15.61
2023-03-19T19:32:32.599Z,15.77
2023-03-19T19:34:59.604Z,15.58
2023-03-19T19:37:26.593Z,15.51
2023-03-19T19:39:53.742Z,15.48
2023-03-19T19:42:22.415Z,15.43
2023-03-19T19:44:59.039Z,15.45
2023-03-19T19:47:27.508Z,15.49
2023-03-19T19:49:54.475Z,15.48
2023-03-19T19:52:21.656Z,15.39
2023-03-19T19:54:48.810Z,15.51
2023-03-19T19:57:22.967Z,15.33
2023-03-19T19:59:52.047Z,15.50
2023-03-19T20:02:29.611Z,15.26
2023-03-19T20:04:58.161Z,15.27
2023-03-19T20:07:25.108Z,15.09
2023-03-19T20:09:52.154Z,14.74
2023-03-19T20:12:22.943Z,15.19
2023-03-19T20:14:52.526Z,15.12
2023-03-19T20:17:21.548Z,14.88
2023-03-19T20:19:49.168Z,14.92
2023-03-19T20:22:16.475Z,14.87
2023-03-19T20:24:43.742Z,15.06
2023-03-19T20:27:23.437Z,15.09
2023-03-19T20:29:51.045Z,14.94
2023-03-19T20:32:33.275Z,15.00
2023-03-19T20:35:04.260Z,14.35
2023-03-19T20:37:31.321Z,14.03
2023-03-19T20:39:58.293Z,14.12
2023-03-19T20:42:27.070Z,14.44
2023-03-19T20:44:58.722Z,14.52
2023-03-19T20:47:26.260Z,14.41
2023-03-19T20:49:53.562Z,14.61
2023-03-19T20:52:20.942Z,14.66
2023-03-19T20:54:48.506Z,14.84
2023-03-19T20:57:24.460Z,13.47
2023-03-19T20:59:51.396Z,14.30
2023-03-19T21:02:24.684Z,14.03
2023-03-19T21:04:51.973Z,14.06
2023-03-19T21:07:33.894Z,13.99
2023-03-19T21:10:03.722Z,13.96
2023-03-19T21:12:32.760Z,14.05
2023-03-19T21:15:01.129Z,14.05
2023-03-19T21:17:28.897Z,13.97
2023-03-19T21:19:56.957Z,14.18
2023-03-19T21:22:28.741Z,14.17
2023-03-19T21:25:07.040Z,14.11
2023-03-19T21:27:37.216Z,14.02
2023-03-19T21:30:05.816Z,13.89
2023-03-19T21:32:32.838Z,13.97
2023-03-19T21:34:59.946Z,14.06
2023-03-19T21:37:26.882Z,14.00
2023-03-19T21:39:53.977Z,14.16
2023-03-19T21:42:22.857Z,14.17
2023-03-19T21:44:57.299Z,14.11
2023-03-19T21:47:25.907Z,13.94
2023-03-19T21:49:52.808Z,14.01
2023-03-19T21:52:22.178Z,14.16
2023-03-19T21:54:49.379Z,13.97
2023-03-19T21:57:17.498Z,13.88
2023-03-19T21:59:48.766Z,13.99
2023-03-19T22:02:27.571Z,13.64
2023-03-19T22:04:54.744Z,13.88
2023-03-19T22:07:21.840Z,13.93
2023-03-19T22:09:48.982Z,13.85
2023-03-19T22:12:27.669Z,13.95
2023-03-19T22:14:55.058Z,14.00
2023-03-19T22:17:25.838Z,13.76
2023-03-19T22:19:52.863Z,13.71
2023-03-19T22:22:19.837Z,13.78
2023-03-19T22:24:46.790Z,13.78
2023-03-19T22:27:17.558Z,13.81
2023-03-19T22:29:47.423Z,13.80
2023-03-19T22:32:16.866Z,13.98
2023-03-19T22:34:44.502Z,13.53
2023-03-19T22:37:28.162Z,13.17
2023-03-19T22:39:55.716Z,12.92
2023-03-19T22:42:26.405Z,12.83
2023-03-19T22:44:54.791Z,12.91
2023-03-19T22:47:25.004Z,12.93
2023-03-19T22:49:52.638Z,13.01
2023-03-19T22:52:19.969Z,12.78
2023-03-19T22:54:48.095Z,12.70
2023-03-19T22:57:15.434Z,12.90
2023-03-19T22:59:43.464Z,12.92
2023-03-19T23:02:14.844Z,13.01
2023-03-19T23:04:41.965Z,13.23
2023-03-19T23:07:12.863Z,13.22
2023-03-19T23:09:40.139Z,13.11
2023-03-19T23:14:34.927Z,13.00
2023-03-19T23:17:07.598Z,12.80
2023-03-19T23:19:36.923Z,12.77
2023-03-19T23:22:05.719Z,12.60
2023-03-19T23:24:33.936Z,12.70
2023-03-19T23:27:02.592Z,12.69
2023-03-19T23:29:35.239Z,12.69
2023-03-19T23:32:04.617Z,12.60
2023-03-19T23:34:35.287Z,12.56
2023-03-19T23:37:07.280Z,12.49
2023-03-19T23:39:34.315Z,12.36
2023-03-19T23:42:01.287Z,12.29
2023-03-19T23:44:29.484Z,12.18
2023-03-19T23:47:01.928Z,12.25
2023-03-19T23:49:32.664Z,12.00
2023-03-19T23:52:01.046Z,12.02
2023-03-19T23:54:36.803Z,12.15
2023-03-19T23:57:08.409Z,12.14
2023-03-19T23:59:38.677Z,12.23
